sensor_id;sensor_type;location;lat;lon;timestamp;P1;durP1;ratioP1;P2;durP2;ratioP2
23702;SDS011;12030;50.376;8.762;2022-08-01T00:01:42;2.38;;;0.85;;
23702;SDS011;12030;50.376;8.762;2022-08-01T00:04:08;1.50;;;0.90;;
23702;SDS011;12030;50.376;8.762;2022-08-01T00:06:34;2.42;;;1.00;;
23702;SDS011;12030;50.376;8.762;2022-08-01T00:08:59;1.08;;;0.80;;
23702;SDS011;12030;50.376;8.762;2022-08-01T00:11:25;2.92;;;0.95;;
23702;SDS011;12030;50.376;8.762;2022-08-01T00:13:50;2.22;;;0.95;;
23702;SDS011;12030;50.376;8.762;2022-08-01T00:16:16;2.20;;;0.98;;
23702;SDS011;12030;50.376;8.762;2022-08-01T00:18:42;1.53;;;0.80;;
23702;SDS011;12030;50.376;8.762;2022-08-01T00:21:07;1.10;;;0.70;;
23702;SDS011;12030;50.376;8.762;2022-08-01T00:23:33;1.70;;;0.85;;
23702;SDS011;12030;50.376;8.762;2022-08-01T00:25:58;1.70;;;0.85;;
23702;SDS011;12030;50.376;8.762;2022-08-01T00:28:24;1.70;;;0.70;;
23702;SDS011;12030;50.376;8.762;2022-08-01T00:30:50;1.27;;;0.77;;
23702;SDS011;12030;50.376;8.762;2022-08-01T00:33:15;3.07;;;1.03;;
23702;SDS011;12030;50.376;8.762;2022-08-01T00:35:41;1.40;;;1.00;;
23702;SDS011;12030;50.376;8.762;2022-08-01T00:38:06;3.40;;;0.90;;
23702;SDS011;12030;50.376;8.762;2022-08-01T00:40:32;2.07;;;0.80;;
23702;SDS011;12030;50.376;8.762;2022-08-01T00:42:57;1.93;;;1.00;;
23702;SDS011;12030;50.376;8.762;2022-08-01T00:45:23;5.80;;;0.90;;
23702;SDS011;12030;50.376;8.762;2022-08-01T00:47:48;1.53;;;0.80;;
23702;SDS011;12030;50.376;8.762;2022-08-01T00:50:14;0.60;;;0.60;;
23702;SDS011;12030;50.376;8.762;2022-08-01T00:52:40;1.93;;;0.90;;
23702;SDS011;12030;50.376;8.762;2022-08-01T00:55:07;1.53;;;0.60;;
23702;SDS011;12030;50.376;8.762;2022-08-01T00:57:34;3.33;;;1.00;;
23702;SDS011;12030;50.376;8.762;2022-08-01T01:00:00;1.60;;;0.93;;
23702;SDS011;12030;50.376;8.762;2022-08-01T01:02:25;1.33;;;0.80;;
23702;SDS011;12030;50.376;8.762;2022-08-01T01:04:51;2.57;;;0.77;;
23702;SDS011;12030;50.376;8.762;2022-08-01T01:07:17;1.57;;;1.20;;
23702;SDS011;12030;50.376;8.762;2022-08-01T01:09:57;1.80;;;0.87;;
23702;SDS011;12030;50.376;8.762;2022-08-01T01:12:50;1.80;;;1.10;;
23702;SDS011;12030;50.376;8.762;2022-08-01T01:15:23;3.47;;;0.73;;
23702;SDS011;12030;50.376;8.762;2022-08-01T01:18:07;1.33;;;0.90;;
23702;SDS011;12030;50.376;8.762;2022-08-01T01:20:37;3.10;;;0.80;;
23702;SDS011;12030;50.376;8.762;2022-08-01T01:25:50;0.83;;;0.73;;
23702;SDS011;12030;50.376;8.762;2022-08-01T01:31:13;0.87;;;0.80;;
23702;SDS011;12030;50.376;8.762;2022-08-01T01:33:39;2.40;;;0.80;;
23702;SDS011;12030;50.376;8.762;2022-08-01T01:36:08;2.90;;;0.77;;
23702;SDS011;12030;50.376;8.762;2022-08-01T01:38:37;1.10;;;0.80;;
23702;SDS011;12030;50.376;8.762;2022-08-01T01:41:09;2.47;;;1.13;;
23702;SDS011;12030;50.376;8.762;2022-08-01T01:43:37;0.50;;;0.50;;
23702;SDS011;12030;50.376;8.762;2022-08-01T01:46:04;1.80;;;0.83;;
23702;SDS011;12030;50.376;8.762;2022-08-01T01:48:31;1.57;;;0.90;;
23702;SDS011;12030;50.376;8.762;2022-08-01T01:50:58;1.90;;;0.77;;
23702;SDS011;12030;50.376;8.762;2022-08-01T01:53:25;4.03;;;0.70;;
23702;SDS011;12030;50.376;8.762;2022-08-01T01:55:53;6.47;;;1.03;;
23702;SDS011;12030;50.376;8.762;2022-08-01T01:58:20;2.57;;;1.00;;
23702;SDS011;12030;50.376;8.762;2022-08-01T02:00:48;1.63;;;0.90;;
23702;SDS011;12030;50.376;8.762;2022-08-01T02:03:16;1.10;;;1.00;;
23702;SDS011;12030;50.376;8.762;2022-08-01T02:05:43;2.10;;;1.03;;
23702;SDS011;12030;50.376;8.762;2022-08-01T02:08:09;5.17;;;0.80;;
23702;SDS011;12030;50.376;8.762;2022-08-01T02:10:37;0.87;;;0.80;;
23702;SDS011;12030;50.376;8.762;2022-08-01T02:13:05;3.43;;;0.77;;
23702;SDS011;12030;50.376;8.762;2022-08-01T02:15:31;2.13;;;1.00;;
23702;SDS011;12030;50.376;8.762;2022-08-01T02:17:59;2.80;;;0.80;;
23702;SDS011;12030;50.376;8.762;2022-08-01T02:20:27;0.90;;;0.60;;
23702;SDS011;12030;50.376;8.762;2022-08-01T02:23:00;1.63;;;0.90;;
23702;SDS011;12030;50.376;8.762;2022-08-01T02:25:32;1.00;;;0.90;;
23702;SDS011;12030;50.376;8.762;2022-08-01T02:28:06;5.60;;;1.10;;
23702;SDS011;12030;50.376;8.762;2022-08-01T02:30:36;5.23;;;0.90;;
23702;SDS011;12030;50.376;8.762;2022-08-01T02:33:23;1.27;;;1.00;;
23702;SDS011;12030;50.376;8.762;2022-08-01T02:35:53;1.37;;;1.00;;
23702;SDS011;12030;50.376;8.762;2022-08-01T02:38:23;1.13;;;0.60;;
23702;SDS011;12030;50.376;8.762;2022-08-01T02:40:52;2.03;;;1.00;;
23702;SDS011;12030;50.376;8.762;2022-08-01T02:43:21;1.33;;;0.90;;
23702;SDS011;12030;50.376;8.762;2022-08-01T02:45:49;2.30;;;1.00;;
23702;SDS011;12030;50.376;8.762;2022-08-01T02:48:19;2.13;;;1.00;;
23702;SDS011;12030;50.376;8.762;2022-08-01T02:50:47;1.33;;;0.90;;
23702;SDS011;12030;50.376;8.762;2022-08-01T02:53:14;2.33;;;1.07;;
23702;SDS011;12030;50.376;8.762;2022-08-01T02:55:43;1.20;;;0.80;;
23702;SDS011;12030;50.376;8.762;2022-08-01T02:58:12;1.07;;;0.83;;
23702;SDS011;12030;50.376;8.762;2022-08-01T03:00:41;2.47;;;0.83;;
23702;SDS011;12030;50.376;8.762;2022-08-01T03:03:09;1.57;;;1.00;;
23702;SDS011;12030;50.376;8.762;2022-08-01T03:05:35;4.60;;;1.00;;
23702;SDS011;12030;50.376;8.762;2022-08-01T03:08:04;1.23;;;1.10;;
23702;SDS011;12030;50.376;8.762;2022-08-01T03:10:33;1.30;;;0.90;;
23702;SDS011;12030;50.376;8.762;2022-08-01T03:13:01;1.20;;;0.93;;
23702;SDS011;12030;50.376;8.762;2022-08-01T03:15:31;3.30;;;1.10;;
23702;SDS011;12030;50.376;8.762;2022-08-01T03:17:59;4.30;;;1.00;;
23702;SDS011;12030;50.376;8.762;2022-08-01T03:20:26;3.23;;;1.20;;
23702;SDS011;12030;50.376;8.762;2022-08-01T03:22:54;1.07;;;0.80;;
23702;SDS011;12030;50.376;8.762;2022-08-01T03:25:21;3.30;;;1.00;;
23702;SDS011;12030;50.376;8.762;2022-08-01T03:27:50;1.20;;;1.10;;
23702;SDS011;12030;50.376;8.762;2022-08-01T03:30:19;2.37;;;0.90;;
23702;SDS011;12030;50.376;8.762;2022-08-01T03:32:48;1.13;;;1.03;;
23702;SDS011;12030;50.376;8.762;2022-08-01T03:35:13;1.57;;;1.33;;
23702;SDS011;12030;50.376;8.762;2022-08-01T03:37:44;1.93;;;1.10;;
23702;SDS011;12030;50.376;8.762;2022-08-01T03:40:22;0.73;;;0.73;;
23702;SDS011;12030;50.376;8.762;2022-08-01T03:42:52;4.87;;;1.13;;
23702;SDS011;12030;50.376;8.762;2022-08-01T03:45:22;1.23;;;1.00;;
23702;SDS011;12030;50.376;8.762;2022-08-01T03:47:52;1.73;;;1.00;;
23702;SDS011;12030;50.376;8.762;2022-08-01T03:50:24;2.60;;;1.10;;
23702;SDS011;12030;50.376;8.762;2022-08-01T03:52:50;3.37;;;1.30;;
23702;SDS011;12030;50.376;8.762;2022-08-01T03:55:18;1.93;;;1.27;;
23702;SDS011;12030;50.376;8.762;2022-08-01T03:57:46;2.57;;;0.90;;
23702;SDS011;12030;50.376;8.762;2022-08-01T04:00:12;1.30;;;1.20;;
23702;SDS011;12030;50.376;8.762;2022-08-01T04:02:43;3.73;;;1.50;;
23702;SDS011;12030;50.376;8.762;2022-08-01T04:05:12;1.53;;;1.20;;
23702;SDS011;12030;50.376;8.762;2022-08-01T04:07:38;2.23;;;1.13;;
23702;SDS011;12030;50.376;8.762;2022-08-01T04:10:05;3.67;;;1.50;;
23702;SDS011;12030;50.376;8.762;2022-08-01T04:12:31;1.20;;;1.07;;
23702;SDS011;12030;50.376;8.762;2022-08-01T04:14:58;1.80;;;1.10;;
23702;SDS011;12030;50.376;8.762;2022-08-01T04:17:24;2.70;;;1.17;;
23702;SDS011;12030;50.376;8.762;2022-08-01T04:19:49;2.23;;;0.90;;
23702;SDS011;12030;50.376;8.762;2022-08-01T04:22:15;3.13;;;1.20;;
23702;SDS011;12030;50.376;8.762;2022-08-01T04:24:42;1.37;;;0.90;;
23702;SDS011;12030;50.376;8.762;2022-08-01T04:27:20;2.30;;;1.40;;
23702;SDS011;12030;50.376;8.762;2022-08-01T04:29:49;2.23;;;1.07;;
23702;SDS011;12030;50.376;8.762;2022-08-01T04:32:18;1.53;;;1.13;;
23702;SDS011;12030;50.376;8.762;2022-08-01T04:34:46;1.37;;;1.20;;
23702;SDS011;12030;50.376;8.762;2022-08-01T04:37:12;1.60;;;1.20;;
23702;SDS011;12030;50.376;8.762;2022-08-01T04:39:41;1.77;;;1.23;;
23702;SDS011;12030;50.376;8.762;2022-08-01T04:42:09;2.87;;;1.03;;
23702;SDS011;12030;50.376;8.762;2022-08-01T04:44:36;2.37;;;1.30;;
23702;SDS011;12030;50.376;8.762;2022-08-01T04:47:02;2.07;;;1.20;;
23702;SDS011;12030;50.376;8.762;2022-08-01T04:49:33;1.63;;;1.30;;
23702;SDS011;12030;50.376;8.762;2022-08-01T04:51:59;1.87;;;1.53;;
23702;SDS011;12030;50.376;8.762;2022-08-01T04:54:28;1.60;;;1.50;;
23702;SDS011;12030;50.376;8.762;2022-08-01T04:56:55;1.83;;;1.70;;
23702;SDS011;12030;50.376;8.762;2022-08-01T04:59:27;2.00;;;1.60;;
23702;SDS011;12030;50.376;8.762;2022-08-01T05:02:07;2.43;;;1.60;;
23702;SDS011;12030;50.376;8.762;2022-08-01T05:04:33;2.90;;;1.60;;
23702;SDS011;12030;50.376;8.762;2022-08-01T05:06:59;1.60;;;1.20;;
23702;SDS011;12030;50.376;8.762;2022-08-01T05:09:25;2.10;;;1.60;;
23702;SDS011;12030;50.376;8.762;2022-08-01T05:11:51;2.67;;;1.63;;
23702;SDS011;12030;50.376;8.762;2022-08-01T05:14:17;1.73;;;1.63;;
23702;SDS011;12030;50.376;8.762;2022-08-01T05:16:42;2.57;;;1.30;;
23702;SDS011;12030;50.376;8.762;2022-08-01T05:19:09;3.47;;;1.50;;
23702;SDS011;12030;50.376;8.762;2022-08-01T05:21:34;2.97;;;1.47;;
23702;SDS011;12030;50.376;8.762;2022-08-01T05:24:00;1.83;;;1.50;;
23702;SDS011;12030;50.376;8.762;2022-08-01T05:26:25;3.53;;;1.60;;
23702;SDS011;12030;50.376;8.762;2022-08-01T05:28:51;2.03;;;1.73;;
23702;SDS011;12030;50.376;8.762;2022-08-01T05:31:16;2.77;;;1.47;;
23702;SDS011;12030;50.376;8.762;2022-08-01T05:33:42;2.10;;;1.40;;
23702;SDS011;12030;50.376;8.762;2022-08-01T05:36:08;1.30;;;1.20;;
23702;SDS011;12030;50.376;8.762;2022-08-01T05:38:33;3.13;;;1.30;;
23702;SDS011;12030;50.376;8.762;2022-08-01T05:40:59;2.33;;;1.33;;
23702;SDS011;12030;50.376;8.762;2022-08-01T05:43:24;1.40;;;1.30;;
23702;SDS011;12030;50.376;8.762;2022-08-01T05:45:50;2.73;;;1.50;;
23702;SDS011;12030;50.376;8.762;2022-08-01T05:48:15;1.80;;;1.40;;
23702;SDS011;12030;50.376;8.762;2022-08-01T05:50:41;2.30;;;1.57;;
23702;SDS011;12030;50.376;8.762;2022-08-01T05:53:07;2.50;;;1.40;;
23702;SDS011;12030;50.376;8.762;2022-08-01T05:55:32;2.50;;;1.60;;
23702;SDS011;12030;50.376;8.762;2022-08-01T05:57:58;3.23;;;1.93;;
23702;SDS011;12030;50.376;8.762;2022-08-01T06:00:23;2.00;;;1.60;;
23702;SDS011;12030;50.376;8.762;2022-08-01T06:02:49;3.07;;;1.60;;
23702;SDS011;12030;50.376;8.762;2022-08-01T06:05:15;7.27;;;1.27;;
23702;SDS011;12030;50.376;8.762;2022-08-01T06:07:40;2.70;;;1.67;;
23702;SDS011;12030;50.376;8.762;2022-08-01T06:10:06;3.23;;;1.53;;
23702;SDS011;12030;50.376;8.762;2022-08-01T06:12:33;3.63;;;1.70;;
23702;SDS011;12030;50.376;8.762;2022-08-01T06:14:59;2.17;;;1.50;;
23702;SDS011;12030;50.376;8.762;2022-08-01T06:17:24;1.83;;;1.50;;
23702;SDS011;12030;50.376;8.762;2022-08-01T06:19:50;4.20;;;1.70;;
23702;SDS011;12030;50.376;8.762;2022-08-01T06:22:15;2.87;;;1.87;;
23702;SDS011;12030;50.376;8.762;2022-08-01T06:24:41;2.63;;;1.87;;
23702;SDS011;12030;50.376;8.762;2022-08-01T06:27:06;6.10;;;2.13;;
23702;SDS011;12030;50.376;8.762;2022-08-01T06:29:32;2.03;;;1.83;;
23702;SDS011;12030;50.376;8.762;2022-08-01T06:31:58;2.57;;;1.70;;
23702;SDS011;12030;50.376;8.762;2022-08-01T06:34:24;2.20;;;1.97;;
23702;SDS011;12030;50.376;8.762;2022-08-01T06:36:50;3.00;;;1.90;;
23702;SDS011;12030;50.376;8.762;2022-08-01T06:39:15;3.40;;;1.60;;
23702;SDS011;12030;50.376;8.762;2022-08-01T06:41:41;3.00;;;2.13;;
23702;SDS011;12030;50.376;8.762;2022-08-01T06:44:06;4.10;;;2.50;;
23702;SDS011;12030;50.376;8.762;2022-08-01T06:46:32;2.57;;;2.37;;
23702;SDS011;12030;50.376;8.762;2022-08-01T06:48:59;2.40;;;2.03;;
23702;SDS011;12030;50.376;8.762;2022-08-01T06:51:24;2.97;;;2.53;;
23702;SDS011;12030;50.376;8.762;2022-08-01T06:53:50;3.20;;;2.37;;
23702;SDS011;12030;50.376;8.762;2022-08-01T06:56:15;3.17;;;2.23;;
23702;SDS011;12030;50.376;8.762;2022-08-01T06:58:41;3.50;;;2.40;;
23702;SDS011;12030;50.376;8.762;2022-08-01T07:01:06;4.20;;;2.30;;
23702;SDS011;12030;50.376;8.762;2022-08-01T07:03:32;2.70;;;2.40;;
23702;SDS011;12030;50.376;8.762;2022-08-01T07:05:59;2.27;;;2.07;;
23702;SDS011;12030;50.376;8.762;2022-08-01T07:08:24;3.17;;;2.00;;
23702;SDS011;12030;50.376;8.762;2022-08-01T07:10:50;2.27;;;2.07;;
23702;SDS011;12030;50.376;8.762;2022-08-01T07:13:15;2.80;;;2.50;;
23702;SDS011;12030;50.376;8.762;2022-08-01T07:15:45;2.57;;;2.37;;
23702;SDS011;12030;50.376;8.762;2022-08-01T07:18:11;2.60;;;2.17;;
23702;SDS011;12030;50.376;8.762;2022-08-01T07:20:37;3.10;;;2.23;;
23702;SDS011;12030;50.376;8.762;2022-08-01T07:23:03;3.73;;;2.53;;
23702;SDS011;12030;50.376;8.762;2022-08-01T07:25:28;5.00;;;2.93;;
23702;SDS011;12030;50.376;8.762;2022-08-01T07:27:54;4.50;;;3.07;;
23702;SDS011;12030;50.376;8.762;2022-08-01T07:30:20;4.07;;;2.63;;
23702;SDS011;12030;50.376;8.762;2022-08-01T07:32:46;4.93;;;2.97;;
23702;SDS011;12030;50.376;8.762;2022-08-01T07:35:11;3.90;;;3.30;;
23702;SDS011;12030;50.376;8.762;2022-08-01T07:37:37;4.73;;;3.57;;
23702;SDS011;12030;50.376;8.762;2022-08-01T07:40:03;6.10;;;3.50;;
23702;SDS011;12030;50.376;8.762;2022-08-01T07:42:30;4.50;;;3.60;;
23702;SDS011;12030;50.376;8.762;2022-08-01T07:44:56;4.37;;;3.87;;
23702;SDS011;12030;50.376;8.762;2022-08-01T07:47:24;4.70;;;3.73;;
23702;SDS011;12030;50.376;8.762;2022-08-01T07:49:51;4.13;;;3.37;;
23702;SDS011;12030;50.376;8.762;2022-08-01T07:52:17;3.90;;;3.60;;
23702;SDS011;12030;50.376;8.762;2022-08-01T07:54:43;5.43;;;3.67;;
23702;SDS011;12030;50.376;8.762;2022-08-01T07:57:08;4.30;;;3.37;;
23702;SDS011;12030;50.376;8.762;2022-08-01T07:59:34;5.83;;;3.80;;
23702;SDS011;12030;50.376;8.762;2022-08-01T08:02:00;3.77;;;3.47;;
23702;SDS011;12030;50.376;8.762;2022-08-01T08:04:26;4.37;;;3.53;;
23702;SDS011;12030;50.376;8.762;2022-08-01T08:06:52;4.53;;;3.60;;
23702;SDS011;12030;50.376;8.762;2022-08-01T08:09:18;3.63;;;3.30;;
23702;SDS011;12030;50.376;8.762;2022-08-01T08:11:44;5.20;;;3.50;;
23702;SDS011;12030;50.376;8.762;2022-08-01T08:14:11;5.37;;;2.97;;
23702;SDS011;12030;50.376;8.762;2022-08-01T08:16:37;3.20;;;2.90;;
23702;SDS011;12030;50.376;8.762;2022-08-01T08:19:03;3.37;;;3.07;;
23702;SDS011;12030;50.376;8.762;2022-08-01T08:21:29;6.60;;;3.40;;
23702;SDS011;12030;50.376;8.762;2022-08-01T08:23:55;3.53;;;2.77;;
23702;SDS011;12030;50.376;8.762;2022-08-01T08:26:39;3.83;;;3.40;;
23702;SDS011;12030;50.376;8.762;2022-08-01T08:29:05;3.00;;;2.67;;
23702;SDS011;12030;50.376;8.762;2022-08-01T08:31:31;3.40;;;3.10;;
23702;SDS011;12030;50.376;8.762;2022-08-01T08:33:56;3.53;;;3.00;;
23702;SDS011;12030;50.376;8.762;2022-08-01T08:36:22;3.80;;;3.20;;
23702;SDS011;12030;50.376;8.762;2022-08-01T08:38:47;3.50;;;3.20;;
23702;SDS011;12030;50.376;8.762;2022-08-01T08:41:13;6.17;;;3.47;;
23702;SDS011;12030;50.376;8.762;2022-08-01T08:43:39;4.60;;;3.10;;
23702;SDS011;12030;50.376;8.762;2022-08-01T08:46:05;3.60;;;3.23;;
23702;SDS011;12030;50.376;8.762;2022-08-01T08:48:32;4.47;;;3.13;;
23702;SDS011;12030;50.376;8.762;2022-08-01T08:51:00;4.20;;;3.37;;
23702;SDS011;12030;50.376;8.762;2022-08-01T08:53:26;5.27;;;3.50;;
23702;SDS011;12030;50.376;8.762;2022-08-01T08:55:52;4.33;;;3.30;;
23702;SDS011;12030;50.376;8.762;2022-08-01T08:58:19;3.00;;;2.80;;
23702;SDS011;12030;50.376;8.762;2022-08-01T09:00:46;3.53;;;3.13;;
23702;SDS011;12030;50.376;8.762;2022-08-01T09:03:12;6.27;;;3.30;;
23702;SDS011;12030;50.376;8.762;2022-08-01T09:05:38;4.17;;;2.83;;
23702;SDS011;12030;50.376;8.762;2022-08-01T09:08:07;4.97;;;3.17;;
23702;SDS011;12030;50.376;8.762;2022-08-01T09:10:33;4.53;;;2.87;;
23702;SDS011;12030;50.376;8.762;2022-08-01T09:13:19;4.30;;;2.77;;
23702;SDS011;12030;50.376;8.762;2022-08-01T09:15:48;5.90;;;2.97;;
23702;SDS011;12030;50.376;8.762;2022-08-01T09:18:38;4.53;;;2.57;;
23702;SDS011;12030;50.376;8.762;2022-08-01T09:23:34;3.73;;;2.60;;
23702;SDS011;12030;50.376;8.762;2022-08-01T09:26:09;3.20;;;2.87;;
23702;SDS011;12030;50.376;8.762;2022-08-01T09:28:36;3.00;;;2.80;;
23702;SDS011;12030;50.376;8.762;2022-08-01T09:31:12;3.67;;;2.37;;
23702;SDS011;12030;50.376;8.762;2022-08-01T09:36:48;3.73;;;2.30;;
23702;SDS011;12030;50.376;8.762;2022-08-01T09:39:23;2.53;;;2.23;;
23702;SDS011;12030;50.376;8.762;2022-08-01T09:44:45;3.17;;;2.43;;
23702;SDS011;12030;50.376;8.762;2022-08-01T09:47:11;2.60;;;2.40;;
23702;SDS011;12030;50.376;8.762;2022-08-01T09:49:38;2.40;;;2.17;;
23702;SDS011;12030;50.376;8.762;2022-08-01T09:52:12;2.63;;;2.43;;
23702;SDS011;12030;50.376;8.762;2022-08-01T09:54:40;2.63;;;2.30;;
23702;SDS011;12030;50.376;8.762;2022-08-01T09:57:11;3.23;;;2.40;;
23702;SDS011;12030;50.376;8.762;2022-08-01T09:59:43;3.77;;;2.07;;
23702;SDS011;12030;50.376;8.762;2022-08-01T10:02:14;2.53;;;2.33;;
23702;SDS011;12030;50.376;8.762;2022-08-01T10:04:52;3.13;;;2.47;;
23702;SDS011;12030;50.376;8.762;2022-08-01T10:07:19;2.40;;;2.20;;
23702;SDS011;12030;50.376;8.762;2022-08-01T10:09:45;2.27;;;2.10;;
23702;SDS011;12030;50.376;8.762;2022-08-01T10:12:12;4.20;;;2.10;;
23702;SDS011;12030;50.376;8.762;2022-08-01T10:14:40;3.13;;;2.30;;
23702;SDS011;12030;50.376;8.762;2022-08-01T10:17:06;3.87;;;2.40;;
23702;SDS011;12030;50.376;8.762;2022-08-01T10:19:34;2.47;;;2.27;;
23702;SDS011;12030;50.376;8.762;2022-08-01T10:22:00;2.37;;;2.10;;
23702;SDS011;12030;50.376;8.762;2022-08-01T10:24:29;2.57;;;2.33;;
23702;SDS011;12030;50.376;8.762;2022-08-01T10:27:01;4.07;;;2.43;;
23702;SDS011;12030;50.376;8.762;2022-08-01T10:29:30;2.90;;;2.60;;
23702;SDS011;12030;50.376;8.762;2022-08-01T10:32:01;3.53;;;2.63;;
23702;SDS011;12030;50.376;8.762;2022-08-01T10:34:29;3.77;;;2.53;;
23702;SDS011;12030;50.376;8.762;2022-08-01T10:36:56;2.83;;;2.63;;
23702;SDS011;12030;50.376;8.762;2022-08-01T10:39:22;2.60;;;2.30;;
23702;SDS011;12030;50.376;8.762;2022-08-01T10:41:48;3.53;;;2.63;;
23702;SDS011;12030;50.376;8.762;2022-08-01T10:44:14;2.47;;;2.27;;
23702;SDS011;12030;50.376;8.762;2022-08-01T10:46:42;3.47;;;2.60;;
23702;SDS011;12030;50.376;8.762;2022-08-01T10:49:13;3.83;;;2.50;;
23702;SDS011;12030;50.376;8.762;2022-08-01T10:51:42;3.07;;;2.63;;
23702;SDS011;12030;50.376;8.762;2022-08-01T10:54:10;3.50;;;2.77;;
23702;SDS011;12030;50.376;8.762;2022-08-01T10:56:38;2.43;;;2.20;;
23702;SDS011;12030;50.376;8.762;2022-08-01T10:59:29;3.00;;;2.67;;
23702;SDS011;12030;50.376;8.762;2022-08-01T11:01:59;2.50;;;2.30;;
23702;SDS011;12030;50.376;8.762;2022-08-01T11:04:41;3.07;;;2.77;;
23702;SDS011;12030;50.376;8.762;2022-08-01T11:07:23;3.97;;;3.57;;
23702;SDS011;12030;50.376;8.762;2022-08-01T11:10:04;2.97;;;2.77;;
23702;SDS011;12030;50.376;8.762;2022-08-01T11:12:38;3.00;;;2.80;;
23702;SDS011;12030;50.376;8.762;2022-08-01T11:17:33;2.80;;;2.60;;
23702;SDS011;12030;50.376;8.762;2022-08-01T11:20:16;3.87;;;2.60;;
23702;SDS011;12030;50.376;8.762;2022-08-01T11:30:48;4.27;;;3.10;;
23702;SDS011;12030;50.376;8.762;2022-08-01T11:38:36;3.30;;;3.00;;
23702;SDS011;12030;50.376;8.762;2022-08-01T11:46:48;3.87;;;3.33;;
23702;SDS011;12030;50.376;8.762;2022-08-01T11:49:29;4.80;;;3.73;;
23702;SDS011;12030;50.376;8.762;2022-08-01T11:54:45;3.93;;;3.47;;
23702;SDS011;12030;50.376;8.762;2022-08-01T11:57:18;3.67;;;3.30;;
23702;SDS011;12030;50.376;8.762;2022-08-01T11:59:49;3.80;;;3.40;;
23702;SDS011;12030;50.376;8.762;2022-08-01T12:02:26;3.50;;;3.20;;
23702;SDS011;12030;50.376;8.762;2022-08-01T12:04:57;3.17;;;2.90;;
23702;SDS011;12030;50.376;8.762;2022-08-01T12:07:25;3.83;;;3.53;;
23702;SDS011;12030;50.376;8.762;2022-08-01T12:10:03;2.90;;;2.70;;
23702;SDS011;12030;50.376;8.762;2022-08-01T12:12:34;3.03;;;2.83;;
23702;SDS011;12030;50.376;8.762;2022-08-01T12:15:03;3.90;;;2.80;;
23702;SDS011;12030;50.376;8.762;2022-08-01T12:20:04;3.00;;;2.33;;
23702;SDS011;12030;50.376;8.762;2022-08-01T12:22:40;2.60;;;2.40;;
23702;SDS011;12030;50.376;8.762;2022-08-01T12:25:08;2.80;;;2.60;;
23702;SDS011;12030;50.376;8.762;2022-08-01T12:27:35;3.40;;;2.70;;
23702;SDS011;12030;50.376;8.762;2022-08-01T12:30:04;3.27;;;2.97;;
23702;SDS011;12030;50.376;8.762;2022-08-01T12:32:38;4.57;;;2.80;;
23702;SDS011;12030;50.376;8.762;2022-08-01T12:35:12;3.37;;;2.87;;
23702;SDS011;12030;50.376;8.762;2022-08-01T12:40:31;2.97;;;2.60;;
23702;SDS011;12030;50.376;8.762;2022-08-01T12:43:05;3.17;;;2.77;;
23702;SDS011;12030;50.376;8.762;2022-08-01T12:45:37;4.47;;;3.30;;
23702;SDS011;12030;50.376;8.762;2022-08-01T12:48:07;3.33;;;2.63;;
23702;SDS011;12030;50.376;8.762;2022-08-01T12:50:39;3.03;;;2.83;;
23702;SDS011;12030;50.376;8.762;2022-08-01T12:53:09;3.20;;;2.90;;
23702;SDS011;12030;50.376;8.762;2022-08-01T12:55:48;2.53;;;2.33;;
23702;SDS011;12030;50.376;8.762;2022-08-01T12:58:17;2.57;;;2.37;;
23702;SDS011;12030;50.376;8.762;2022-08-01T13:00:46;3.07;;;2.37;;
23702;SDS011;12030;50.376;8.762;2022-08-01T13:03:14;3.53;;;2.47;;
23702;SDS011;12030;50.376;8.762;2022-08-01T13:10:46;3.57;;;2.10;;
23702;SDS011;12030;50.376;8.762;2022-08-01T13:13:13;2.43;;;2.23;;
23702;SDS011;12030;50.376;8.762;2022-08-01T13:15:41;2.27;;;2.10;;
23702;SDS011;12030;50.376;8.762;2022-08-01T13:18:27;2.20;;;2.00;;
23702;SDS011;12030;50.376;8.762;2022-08-01T13:23:38;1.67;;;1.57;;
23702;SDS011;12030;50.376;8.762;2022-08-01T13:26:05;2.10;;;1.90;;
23702;SDS011;12030;50.376;8.762;2022-08-01T13:28:32;2.33;;;1.67;;
23702;SDS011;12030;50.376;8.762;2022-08-01T13:30:59;3.60;;;1.93;;
23702;SDS011;12030;50.376;8.762;2022-08-01T13:33:28;2.10;;;1.90;;
23702;SDS011;12030;50.376;8.762;2022-08-01T13:36:05;1.87;;;1.70;;
23702;SDS011;12030;50.376;8.762;2022-08-01T13:38:32;1.77;;;1.63;;
23702;SDS011;12030;50.376;8.762;2022-08-01T13:41:16;2.00;;;1.50;;
23702;SDS011;12030;50.376;8.762;2022-08-01T13:43:41;1.80;;;1.40;;
23702;SDS011;12030;50.376;8.762;2022-08-01T13:46:07;2.43;;;1.70;;
23702;SDS011;12030;50.376;8.762;2022-08-01T13:48:32;1.40;;;1.30;;
23702;SDS011;12030;50.376;8.762;2022-08-01T13:50:58;1.40;;;1.30;;
23702;SDS011;12030;50.376;8.762;2022-08-01T13:53:25;2.13;;;1.70;;
23702;SDS011;12030;50.376;8.762;2022-08-01T13:55:51;2.07;;;1.80;;
23702;SDS011;12030;50.376;8.762;2022-08-01T13:58:17;1.50;;;1.40;;
23702;SDS011;12030;50.376;8.762;2022-08-01T14:00:42;1.50;;;1.40;;
23702;SDS011;12030;50.376;8.762;2022-08-01T14:03:08;3.93;;;2.40;;
23702;SDS011;12030;50.376;8.762;2022-08-01T14:05:35;1.53;;;1.43;;
23702;SDS011;12030;50.376;8.762;2022-08-01T14:08:01;1.57;;;1.47;;
23702;SDS011;12030;50.376;8.762;2022-08-01T14:10:27;1.83;;;1.67;;
23702;SDS011;12030;50.376;8.762;2022-08-01T14:12:52;1.67;;;1.50;;
23702;SDS011;12030;50.376;8.762;2022-08-01T14:15:19;2.07;;;1.50;;
23702;SDS011;12030;50.376;8.762;2022-08-01T14:17:45;1.63;;;1.37;;
23702;SDS011;12030;50.376;8.762;2022-08-01T14:20:10;2.53;;;1.70;;
23702;SDS011;12030;50.376;8.762;2022-08-01T14:22:36;2.10;;;1.80;;
23702;SDS011;12030;50.376;8.762;2022-08-01T14:25:01;1.83;;;1.60;;
23702;SDS011;12030;50.376;8.762;2022-08-01T14:27:27;3.57;;;1.97;;
23702;SDS011;12030;50.376;8.762;2022-08-01T14:29:55;1.60;;;1.50;;
23702;SDS011;12030;50.376;8.762;2022-08-01T14:32:21;1.70;;;1.60;;
23702;SDS011;12030;50.376;8.762;2022-08-01T14:34:47;1.87;;;1.60;;
23702;SDS011;12030;50.376;8.762;2022-08-01T14:37:12;3.20;;;1.93;;
23702;SDS011;12030;50.376;8.762;2022-08-01T14:39:38;3.27;;;1.77;;
23702;SDS011;12030;50.376;8.762;2022-08-01T14:42:03;2.13;;;1.93;;
23702;SDS011;12030;50.376;8.762;2022-08-01T14:44:29;1.83;;;1.73;;
23702;SDS011;12030;50.376;8.762;2022-08-01T14:46:55;1.90;;;1.77;;
23702;SDS011;12030;50.376;8.762;2022-08-01T14:49:20;1.77;;;1.67;;
23702;SDS011;12030;50.376;8.762;2022-08-01T14:51:46;2.07;;;1.70;;
23702;SDS011;12030;50.376;8.762;2022-08-01T14:54:11;1.87;;;1.50;;
23702;SDS011;12030;50.376;8.762;2022-08-01T14:56:37;1.80;;;1.70;;
23702;SDS011;12030;50.376;8.762;2022-08-01T14:59:02;2.87;;;1.70;;
23702;SDS011;12030;50.376;8.762;2022-08-01T15:01:28;2.33;;;1.70;;
23702;SDS011;12030;50.376;8.762;2022-08-01T15:03:53;1.87;;;1.70;;
23702;SDS011;12030;50.376;8.762;2022-08-01T15:06:20;1.90;;;1.80;;
23702;SDS011;12030;50.376;8.762;2022-08-01T15:08:46;1.80;;;1.70;;
23702;SDS011;12030;50.376;8.762;2022-08-01T15:11:11;4.00;;;1.80;;
23702;SDS011;12030;50.376;8.762;2022-08-01T15:13:37;2.03;;;1.83;;
23702;SDS011;12030;50.376;8.762;2022-08-01T15:16:03;1.87;;;1.60;;
23702;SDS011;12030;50.376;8.762;2022-08-01T15:18:28;2.43;;;1.70;;
23702;SDS011;12030;50.376;8.762;2022-08-01T15:20:54;1.50;;;1.40;;
23702;SDS011;12030;50.376;8.762;2022-08-01T15:23:20;1.80;;;1.70;;
23702;SDS011;12030;50.376;8.762;2022-08-01T15:25:46;2.07;;;1.73;;
23702;SDS011;12030;50.376;8.762;2022-08-01T15:28:12;1.63;;;1.50;;
23702;SDS011;12030;50.376;8.762;2022-08-01T15:30:37;1.53;;;1.37;;
23702;SDS011;12030;50.376;8.762;2022-08-01T15:33:04;1.97;;;1.57;;
23702;SDS011;12030;50.376;8.762;2022-08-01T15:35:30;1.73;;;1.60;;
23702;SDS011;12030;50.376;8.762;2022-08-01T15:37:56;1.60;;;1.50;;
23702;SDS011;12030;50.376;8.762;2022-08-01T15:40:21;1.43;;;1.33;;
23702;SDS011;12030;50.376;8.762;2022-08-01T15:42:47;1.80;;;1.70;;
23702;SDS011;12030;50.376;8.762;2022-08-01T15:45:12;1.70;;;1.40;;